KVAY Airport (South Jersey Rgnl) Information

FAA: VAY - ICAO: KVAY

KVAY Airport Location

State New Jersey
County Burlington
City Mount Holly
KVAY Airport is 4 miles southwest of Mount Holly, NJ.
Latitude 39-56-34.4000N
Longitude 074-50-44.7000W
Elevation 52ft

KVAY Airport METARs

METAR KVAY 240754Z AUTO 00000KT 10SM FEW065 BKN085 16/14 A3000 RMK AO2 SLP159 T01560139 PWINO
Altimeter 30.00"
Temperature 15.6°C (60.1°F)
Wind 0° at 0KT
Clouds few at 6,500ft broken at 8,500ft
Visibility 10.0mi
Time observed: 2021-09-24T07:54:00Z

KVAY Airport Details

Status Operational
Activation January 1956
Ownership Public
Usage Public
Chart WASHINGTON
ATC on-site No
Beacon schedule sunset-sunrise
Beacon color clear green

KVAY Airport Contacts

Owner N.J. DEPT. OF TRANSPORTATION
Owner address 1035 PARKWAY AVE., P.O. BOX 600, TRENTON, NJ 08625-0600
Owner phone 609-530-2900
Manager J. KNOX, JR. & L. DE BOCK
Manager address 1001 BEACH AVE. PO BOX 1000, MANHAWKIN, NJ 08050
Manager phone 609-597-1100

KVAY Airport (South Jersey Rgnl) Radio Frequencies

KVAY (Airport) Radio Frequencies

UNICOM 122.8
Common traffic advisory frequency (CTAF) 122.8